createdAt,value
2023-02-23T00:02:07.949Z,16.53
2023-02-23T00:04:36.868Z,16.40
2023-02-23T00:07:06.358Z,16.20
2023-02-23T00:09:36.633Z,16.73
2023-02-23T00:12:09.197Z,16.07
2023-02-23T00:14:37.962Z,15.90
2023-02-23T00:17:10.796Z,16.77
2023-02-23T00:19:38.025Z,16.20
2023-02-23T00:22:06.479Z,16.20
2023-02-23T00:24:33.543Z,15.60
2023-02-23T00:27:06.207Z,15.10
2023-02-23T00:29:39.528Z,14.73
2023-02-23T00:32:07.145Z,15.77
2023-02-23T00:34:37.281Z,14.80
2023-02-23T00:37:04.742Z,14.27
2023-02-23T00:39:31.886Z,15.63
2023-02-23T00:42:03.655Z,15.43
2023-02-23T00:44:33.982Z,14.37
2023-02-23T00:47:02.410Z,14.60
2023-02-23T00:49:29.570Z,14.50
2023-02-23T00:51:56.703Z,15.03
2023-02-23T00:54:23.836Z,14.30
2023-02-23T00:56:51.780Z,14.60
2023-02-23T00:59:20.140Z,14.97
2023-02-23T01:01:47.701Z,14.07
2023-02-23T01:04:15.282Z,14.60
2023-02-23T01:06:43.241Z,14.10
2023-02-23T01:09:16.066Z,13.23
2023-02-23T01:11:46.800Z,14.13
2023-02-23T01:14:15.151Z,14.47
2023-02-23T01:16:42.289Z,13.90
2023-02-23T01:19:11.043Z,14.73
2023-02-23T01:21:42.200Z,15.23
2023-02-23T01:24:11.842Z,14.40
2023-02-23T01:26:42.475Z,13.77
2023-02-23T01:29:15.686Z,13.53
2023-02-23T01:31:53.162Z,14.07
2023-02-23T01:34:23.921Z,14.83
2023-02-23T01:36:51.185Z,15.43
2023-02-23T01:39:20.685Z,15.73
2023-02-23T01:41:48.510Z,16.13
2023-02-23T01:44:15.580Z,16.37
2023-02-23T01:46:46.167Z,16.53
2023-02-23T01:49:21.775Z,15.60
2023-02-23T01:52:00.466Z,14.33
2023-02-23T01:54:36.366Z,15.23
2023-02-23T01:57:05.038Z,15.07
2023-02-23T01:59:39.579Z,16.10
2023-02-23T02:02:07.777Z,15.30
2023-02-23T02:04:46.793Z,16.23
2023-02-23T02:07:20.360Z,16.07
2023-02-23T02:10:10.191Z,15.60
2023-02-23T02:12:44.290Z,15.40
2023-02-23T02:15:17.302Z,13.83
2023-02-23T02:18:18.662Z,15.77
2023-02-23T02:20:52.495Z,16.07
2023-02-23T02:24:00.868Z,16.60
2023-02-23T02:26:52.740Z,15.33
2023-02-23T02:30:13.532Z,15.10
2023-02-23T02:33:19.161Z,15.40
2023-02-23T02:36:17.890Z,14.43
2023-02-23T02:39:23.919Z,15.67
2023-02-23T02:42:18.034Z,15.60
2023-02-23T02:45:33.397Z,14.43
2023-02-23T02:48:25.815Z,17.43
2023-02-23T02:51:00.436Z,14.70
2023-02-23T02:53:41.599Z,15.07
2023-02-23T02:56:09.816Z,15.70
2023-02-23T02:58:39.131Z,15.57
2023-02-23T03:01:33.208Z,15.60
2023-02-23T03:04:38.351Z,14.33
2023-02-23T03:07:39.572Z,15.70
2023-02-23T03:10:41.058Z,15.90
2023-02-23T03:14:13.005Z,14.10
2023-02-23T03:17:03.108Z,15.00
2023-02-23T03:19:55.098Z,15.20
2023-02-23T03:22:47.187Z,15.10
2023-02-23T03:26:00.294Z,16.40
2023-02-23T03:28:52.403Z,16.10
2023-02-23T03:32:05.549Z,15.57
2023-02-23T03:35:28.557Z,14.77
2023-02-23T03:38:46.555Z,16.60
2023-02-23T03:41:34.200Z,16.73
2023-02-23T03:44:29.338Z,15.13
2023-02-23T03:47:18.206Z,15.67
2023-02-23T03:50:08.344Z,15.27
2023-02-23T03:53:12.985Z,15.37
2023-02-23T03:56:06.997Z,15.63
2023-02-23T03:59:08.534Z,15.43
2023-02-23T04:01:56.218Z,15.97
2023-02-23T04:04:43.907Z,15.00
2023-02-23T04:07:32.780Z,15.67
2023-02-23T04:10:18.804Z,15.20
2023-02-23T04:13:18.763Z,15.30
2023-02-23T04:16:01.667Z,15.77
2023-02-23T04:18:33.579Z,16.20
2023-02-23T04:21:01.581Z,15.40
2023-02-23T04:23:40.922Z,17.53
2023-02-23T04:26:08.104Z,15.80
2023-02-23T04:28:35.298Z,16.73
2023-02-23T04:31:02.692Z,15.43
2023-02-23T04:33:29.788Z,17.17
2023-02-23T04:35:56.892Z,16.50
2023-02-23T04:38:24.000Z,15.97
2023-02-23T04:40:51.581Z,16.87
2023-02-23T04:43:18.667Z,15.50
2023-02-23T04:45:46.068Z,16.90
2023-02-23T04:48:13.129Z,15.33
2023-02-23T04:50:40.209Z,17.03
2023-02-23T04:53:07.485Z,18.20
2023-02-23T04:55:34.605Z,16.30
2023-02-23T04:58:02.745Z,16.80
2023-02-23T05:00:30.506Z,17.40
2023-02-23T05:02:58.279Z,15.63
2023-02-23T05:05:25.527Z,15.57
2023-02-23T05:07:54.607Z,16.53
2023-02-23T05:10:21.920Z,16.20
2023-02-23T05:12:49.084Z,15.40
2023-02-23T05:15:16.502Z,16.27
2023-02-23T05:17:43.588Z,15.57
2023-02-23T05:20:12.737Z,16.00
2023-02-23T05:22:40.429Z,16.40
2023-02-23T05:25:10.225Z,16.30
2023-02-23T05:27:38.810Z,16.03
2023-02-23T05:30:08.000Z,15.83
2023-02-23T05:32:35.451Z,15.93
2023-02-23T05:35:02.954Z,15.47
2023-02-23T05:37:30.231Z,16.43
2023-02-23T05:39:57.267Z,16.27
2023-02-23T05:42:24.320Z,17.90
2023-02-23T05:44:51.362Z,16.87
2023-02-23T05:47:18.739Z,16.17
2023-02-23T05:49:46.278Z,16.37
2023-02-23T05:52:13.381Z,17.50
2023-02-23T05:54:40.482Z,18.07
2023-02-23T05:57:08.366Z,16.97
2023-02-23T05:59:35.698Z,17.10
2023-02-23T06:02:05.240Z,17.23
2023-02-23T06:04:33.241Z,16.93
2023-02-23T06:07:00.423Z,17.70
2023-02-23T06:09:27.566Z,18.23
2023-02-23T06:11:55.065Z,19.27
2023-02-23T06:14:22.121Z,17.57
2023-02-23T06:16:49.312Z,17.57
2023-02-23T06:19:16.594Z,17.90
2023-02-23T06:21:44.712Z,19.57
2023-02-23T06:24:12.330Z,18.57
2023-02-23T06:26:39.537Z,21.10
2023-02-23T06:29:06.635Z,17.87
2023-02-23T06:31:34.923Z,18.50
2023-02-23T06:34:02.053Z,16.23
2023-02-23T06:36:29.552Z,18.20
2023-02-23T06:39:00.332Z,17.27
2023-02-23T06:41:27.883Z,17.70
2023-02-23T06:43:55.628Z,17.73
2023-02-23T06:46:23.270Z,16.80
2023-02-23T06:48:55.650Z,17.37
2023-02-23T06:51:23.521Z,23.67
2023-02-23T06:53:52.495Z,18.63
2023-02-23T06:56:19.901Z,18.30
2023-02-23T06:58:48.035Z,18.10
2023-02-23T07:01:16.300Z,20.30
2023-02-23T07:03:43.516Z,26.47
2023-02-23T07:06:10.784Z,20.03
2023-02-23T07:08:38.803Z,18.47
2023-02-23T07:11:11.489Z,19.33
2023-02-23T07:13:39.368Z,18.20
2023-02-23T07:16:07.645Z,19.80
2023-02-23T07:18:35.119Z,19.50
2023-02-23T07:21:02.186Z,20.30
2023-02-23T07:23:29.251Z,18.83
2023-02-23T07:25:59.608Z,20.60
2023-02-23T07:28:28.897Z,18.77
2023-02-23T07:30:59.409Z,18.30
2023-02-23T07:33:26.768Z,20.23
2023-02-23T07:35:53.830Z,18.67
2023-02-23T07:38:20.941Z,17.70
2023-02-23T07:40:51.089Z,18.60
2023-02-23T07:43:20.802Z,18.60
2023-02-23T07:45:48.060Z,17.70
2023-02-23T07:48:15.444Z,18.60
2023-02-23T07:50:43.067Z,18.07
2023-02-23T07:53:11.460Z,19.60
2023-02-23T07:55:39.527Z,19.17
2023-02-23T07:58:07.588Z,19.40
2023-02-23T08:00:36.991Z,19.37
2023-02-23T08:03:04.402Z,19.53
2023-02-23T08:05:31.409Z,19.23
2023-02-23T08:07:59.699Z,18.07
2023-02-23T08:10:26.969Z,20.57
2023-02-23T08:12:54.205Z,20.90
2023-02-23T08:15:21.351Z,19.83
2023-02-23T08:17:48.530Z,20.27
2023-02-23T08:20:15.645Z,20.13
2023-02-23T08:22:49.781Z,20.47
2023-02-23T08:25:18.365Z,21.63
2023-02-23T08:27:45.570Z,21.37
2023-02-23T08:30:14.198Z,20.27
2023-02-23T08:32:41.771Z,20.30
2023-02-23T08:35:11.098Z,20.13
2023-02-23T08:37:38.312Z,21.13
2023-02-23T08:40:06.273Z,21.20
2023-02-23T08:42:33.385Z,18.90
2023-02-23T08:45:01.502Z,21.20
2023-02-23T08:47:28.648Z,20.07
2023-02-23T08:49:55.773Z,20.57
2023-02-23T08:52:24.070Z,20.70
2023-02-23T08:54:51.177Z,20.40
2023-02-23T08:57:18.306Z,17.80
2023-02-23T08:59:45.508Z,21.50
2023-02-23T09:02:14.692Z,20.80
2023-02-23T09:04:42.132Z,21.37
2023-02-23T09:07:14.931Z,21.10
2023-02-23T09:09:42.177Z,20.50
2023-02-23T09:12:09.730Z,21.23
2023-02-23T09:14:37.197Z,20.13
2023-02-23T09:17:04.279Z,20.00
2023-02-23T09:19:31.792Z,21.67
2023-02-23T09:21:58.858Z,19.07
2023-02-23T09:24:25.917Z,21.10
2023-02-23T09:26:54.040Z,19.43
2023-02-23T09:29:21.272Z,20.50
2023-02-23T09:31:48.432Z,19.83
2023-02-23T09:34:15.583Z,19.37
2023-02-23T09:36:42.654Z,20.17
2023-02-23T09:39:09.712Z,18.87
2023-02-23T09:42:25.843Z,18.40
2023-02-23T09:45:03.582Z,20.43
2023-02-23T09:47:30.973Z,18.73
2023-02-23T09:50:02.435Z,19.07
2023-02-23T09:52:41.635Z,19.07
2023-02-23T09:55:14.428Z,18.97
2023-02-23T09:57:48.269Z,17.77
2023-02-23T10:00:27.968Z,16.40
2023-02-23T10:03:18.242Z,17.43
2023-02-23T10:05:56.029Z,16.10
2023-02-23T10:08:40.692Z,17.27
2023-02-23T10:11:28.006Z,17.33
2023-02-23T10:14:04.013Z,17.77
2023-02-23T10:17:10.281Z,17.17
2023-02-23T10:20:05.232Z,17.13
2023-02-23T10:22:35.937Z,18.63
2023-02-23T10:25:11.710Z,16.07
2023-02-23T10:27:44.147Z,15.60
2023-02-23T10:30:34.847Z,16.10
2023-02-23T10:33:42.233Z,13.93
2023-02-23T10:36:19.309Z,16.50
2023-02-23T10:38:47.249Z,17.47
2023-02-23T10:41:15.030Z,16.23
2023-02-23T10:43:42.558Z,15.17
2023-02-23T10:46:21.218Z,17.17
2023-02-23T10:48:51.153Z,16.00
2023-02-23T10:51:25.401Z,16.17
2023-02-23T10:53:53.021Z,16.37
2023-02-23T10:56:22.581Z,15.50
2023-02-23T10:58:58.522Z,15.43
2023-02-23T11:01:49.088Z,14.47
2023-02-23T11:04:26.273Z,15.07
2023-02-23T11:07:19.712Z,16.83
2023-02-23T11:09:48.343Z,17.60
2023-02-23T11:12:22.917Z,16.90
2023-02-23T11:14:56.766Z,14.13
2023-02-23T11:17:32.638Z,14.90
2023-02-23T11:20:30.528Z,16.10
2023-02-23T11:23:03.615Z,15.37
2023-02-23T11:25:37.593Z,14.50
2023-02-23T11:28:05.054Z,14.87
2023-02-23T11:30:37.597Z,14.73
2023-02-23T11:33:12.369Z,13.60
2023-02-23T11:35:39.700Z,13.27
2023-02-23T11:38:27.554Z,14.10
2023-02-23T11:41:12.004Z,12.80
2023-02-23T11:43:48.194Z,12.20
2023-02-23T11:46:15.458Z,13.30
2023-02-23T11:49:07.673Z,13.03
2023-02-23T11:51:40.485Z,13.97
2023-02-23T11:54:22.269Z,13.80
2023-02-23T11:56:55.283Z,13.17
2023-02-23T11:59:30.995Z,12.50
2023-02-23T12:02:26.360Z,13.33
2023-02-23T12:05:17.665Z,13.27
2023-02-23T12:08:03.226Z,13.37
2023-02-23T12:11:04.988Z,13.33
2023-02-23T12:13:36.828Z,12.63
2023-02-23T12:16:12.248Z,12.77
2023-02-23T12:18:59.776Z,11.77
2023-02-23T12:21:56.213Z,13.33
2023-02-23T12:24:37.869Z,10.40
2023-02-23T12:27:14.351Z,11.60
2023-02-23T12:30:22.688Z,14.43
2023-02-23T12:33:01.195Z,13.13
2023-02-23T12:35:58.726Z,12.93
2023-02-23T12:38:54.604Z,12.50
2023-02-23T12:41:48.487Z,13.13
2023-02-23T12:44:38.894Z,12.30
2023-02-23T12:47:37.579Z,13.10
2023-02-23T12:50:30.914Z,13.67
2023-02-23T12:53:22.186Z,11.13
2023-02-23T12:56:35.559Z,12.63
2023-02-23T12:59:14.243Z,14.13
2023-02-23T13:01:58.831Z,11.80
2023-02-23T13:05:16.619Z,12.50
2023-02-23T13:08:12.909Z,13.40
2023-02-23T13:11:05.870Z,12.00
2023-02-23T13:13:55.610Z,12.63
2023-02-23T13:16:27.038Z,13.20
2023-02-23T13:19:24.397Z,14.03
2023-02-23T13:22:28.983Z,14.30
2023-02-23T13:24:59.945Z,13.17
2023-02-23T13:27:37.141Z,14.73
2023-02-23T13:30:09.874Z,12.83
2023-02-23T13:32:39.351Z,14.20
2023-02-23T13:35:15.947Z,14.43
2023-02-23T13:37:48.923Z,13.10
2023-02-23T13:41:17.800Z,16.50
2023-02-23T13:43:57.403Z,15.03
2023-02-23T13:46:37.400Z,14.27
2023-02-23T13:49:28.564Z,14.53
2023-02-23T13:52:23.873Z,13.87
2023-02-23T13:54:58.804Z,13.00
2023-02-23T13:57:28.537Z,14.80
2023-02-23T13:59:55.732Z,13.07
2023-02-23T14:02:28.876Z,14.07
2023-02-23T14:05:25.093Z,13.17
2023-02-23T14:08:04.471Z,14.10
2023-02-23T14:10:41.672Z,13.33
2023-02-23T14:13:17.507Z,12.93
2023-02-23T14:15:49.925Z,13.27
2023-02-23T14:18:25.579Z,14.23
2023-02-23T14:21:02.565Z,12.80
2023-02-23T14:24:03.200Z,13.07
2023-02-23T14:26:30.236Z,12.00
2023-02-23T14:29:25.631Z,11.67
2023-02-23T14:32:11.005Z,11.90
2023-02-23T14:35:02.254Z,12.63
2023-02-23T14:37:40.163Z,13.63
2023-02-23T14:40:15.318Z,15.03
2023-02-23T14:42:47.024Z,17.00
2023-02-23T14:45:28.928Z,19.03
2023-02-23T14:48:10.164Z,18.93
2023-02-23T14:50:39.165Z,20.53
2023-02-23T14:53:19.823Z,21.57
2023-02-23T14:55:47.317Z,22.83
2023-02-23T14:58:33.505Z,23.30
2023-02-23T15:01:00.762Z,23.30
2023-02-23T15:03:27.873Z,23.67
2023-02-23T15:06:00.786Z,22.97
2023-02-23T15:08:30.639Z,23.87
2023-02-23T15:11:02.226Z,24.23
2023-02-23T15:13:39.881Z,22.67
2023-02-23T15:16:12.957Z,24.50
2023-02-23T15:18:43.345Z,23.03
2023-02-23T15:21:20.561Z,24.17
2023-02-23T15:24:06.480Z,24.87
2023-02-23T15:26:38.079Z,24.33
2023-02-23T15:29:13.539Z,26.00
2023-02-23T15:31:52.909Z,23.10
2023-02-23T15:34:26.549Z,23.37
2023-02-23T15:37:11.354Z,25.70
2023-02-23T15:39:53.257Z,26.57
2023-02-23T15:42:32.132Z,25.80
2023-02-23T15:45:02.502Z,26.10
2023-02-23T15:47:35.600Z,25.43
2023-02-23T15:50:36.014Z,26.87
2023-02-23T15:53:37.428Z,26.30
2023-02-23T15:56:27.040Z,23.30
2023-02-23T15:59:02.628Z,23.53
2023-02-23T16:01:32.302Z,22.87
2023-02-23T16:04:07.229Z,21.63
2023-02-23T16:06:45.970Z,23.47
2023-02-23T16:09:21.303Z,25.63
2023-02-23T16:12:01.750Z,23.97
2023-02-23T16:14:55.369Z,23.83
2023-02-23T16:17:57.891Z,28.10
2023-02-23T16:20:38.597Z,24.57
2023-02-23T16:23:34.126Z,26.80
2023-02-23T16:26:17.994Z,25.10
2023-02-23T16:28:46.757Z,27.63
2023-02-23T16:31:25.834Z,28.73
2023-02-23T16:33:57.135Z,26.70
2023-02-23T16:36:36.729Z,27.27
2023-02-23T16:39:10.214Z,28.87
2023-02-23T16:41:37.342Z,30.30
2023-02-23T16:44:06.946Z,29.77
2023-02-23T16:46:53.884Z,36.63
2023-02-23T16:49:23.410Z,30.77
2023-02-23T16:51:52.440Z,29.40
2023-02-23T16:54:19.505Z,31.47
2023-02-23T16:56:47.819Z,32.83
2023-02-23T16:59:18.461Z,41.60
2023-02-23T17:01:46.618Z,31.37
2023-02-23T17:04:16.272Z,30.93
2023-02-23T17:06:45.194Z,33.87
2023-02-23T17:09:12.915Z,31.87
2023-02-23T17:11:42.670Z,35.50
2023-02-23T17:14:19.839Z,33.93
2023-02-23T17:16:46.893Z,35.13
2023-02-23T17:19:15.932Z,32.93
2023-02-23T17:21:42.971Z,31.13
2023-02-23T17:24:10.176Z,31.50
2023-02-23T17:26:37.453Z,30.83
2023-02-23T17:29:04.558Z,32.93
2023-02-23T17:31:32.190Z,32.00
2023-02-23T17:34:00.245Z,30.90
2023-02-23T17:36:30.017Z,32.63
2023-02-23T17:38:58.513Z,33.90
2023-02-23T17:41:27.200Z,34.30
2023-02-23T17:43:54.510Z,36.80
2023-02-23T17:46:21.764Z,37.20
2023-02-23T17:48:48.816Z,34.53
2023-02-23T17:51:17.005Z,36.77
2023-02-23T17:53:44.158Z,33.67
2023-02-23T17:56:11.384Z,36.80
2023-02-23T17:58:40.137Z,34.70
2023-02-23T18:01:08.084Z,36.93
2023-02-23T18:03:37.519Z,39.50
2023-02-23T18:06:08.726Z,36.63
2023-02-23T18:08:36.953Z,39.57
2023-02-23T18:11:04.175Z,40.17
2023-02-23T18:13:33.818Z,36.13
2023-02-23T18:16:10.619Z,39.17
2023-02-23T18:18:44.887Z,36.00
2023-02-23T18:21:16.271Z,40.23
2023-02-23T18:23:43.400Z,42.50
2023-02-23T18:26:15.298Z,43.00
2023-02-23T18:28:44.484Z,41.53
2023-02-23T18:31:23.630Z,40.87
2023-02-23T18:33:54.121Z,44.77
2023-02-23T18:36:28.978Z,44.87
2023-02-23T18:39:01.157Z,41.07
2023-02-23T18:41:30.952Z,42.30
2023-02-23T18:44:04.848Z,39.03
2023-02-23T18:46:32.696Z,38.80
2023-02-23T18:49:01.222Z,42.87
2023-02-23T18:51:28.468Z,42.07
2023-02-23T18:53:55.766Z,43.50
2023-02-23T18:56:28.204Z,43.43
2023-02-23T18:58:59.464Z,45.47
2023-02-23T19:01:33.475Z,43.80
2023-02-23T19:04:02.396Z,45.60
2023-02-23T19:06:30.928Z,42.00
2023-02-23T19:08:59.563Z,40.63
2023-02-23T19:11:32.959Z,41.43
2023-02-23T19:14:03.998Z,43.20
2023-02-23T19:16:34.900Z,41.83
2023-02-23T19:19:04.758Z,40.57
2023-02-23T19:21:31.966Z,46.00
2023-02-23T19:24:01.113Z,46.10
2023-02-23T19:26:30.099Z,44.97
2023-02-23T19:28:58.385Z,44.40
2023-02-23T19:31:26.692Z,42.40
2023-02-23T19:33:56.760Z,44.30
2023-02-23T19:36:29.906Z,41.70
2023-02-23T19:39:10.855Z,41.90
2023-02-23T19:41:39.882Z,41.40
2023-02-23T19:44:07.480Z,40.87
2023-02-23T19:46:35.178Z,39.20
2023-02-23T19:49:03.370Z,36.20
2023-02-23T19:51:31.137Z,38.50
2023-02-23T19:53:59.030Z,38.10
2023-02-23T19:56:28.078Z,38.70
2023-02-23T19:58:57.076Z,37.87
2023-02-23T20:01:27.536Z,40.70
2023-02-23T20:03:56.789Z,38.93
2023-02-23T20:06:27.464Z,37.63
2023-02-23T20:08:55.372Z,37.73
2023-02-23T20:11:23.534Z,37.60
2023-02-23T20:13:52.994Z,38.77
2023-02-23T20:16:21.483Z,38.87
2023-02-23T20:18:48.766Z,38.90
2023-02-23T20:21:20.059Z,36.70
2023-02-23T20:23:47.864Z,36.73
2023-02-23T20:26:20.172Z,38.70
2023-02-23T20:28:47.724Z,37.10
2023-02-23T20:31:18.750Z,39.10
2023-02-23T20:33:46.550Z,37.50
2023-02-23T20:36:13.988Z,36.23
2023-02-23T20:38:41.272Z,37.37
2023-02-23T20:41:08.745Z,37.63
2023-02-23T20:43:37.375Z,35.23
2023-02-23T20:46:05.159Z,34.53
2023-02-23T20:48:34.797Z,34.70
2023-02-23T20:51:03.285Z,33.30
2023-02-23T20:53:30.603Z,34.33
2023-02-23T20:55:58.120Z,32.50
2023-02-23T20:58:25.267Z,33.70
2023-02-23T21:00:57.282Z,34.47
2023-02-23T21:03:25.512Z,34.20
2023-02-23T21:05:53.010Z,32.87
2023-02-23T21:08:21.092Z,34.77
2023-02-23T21:10:50.210Z,33.87
2023-02-23T21:13:18.742Z,34.37
2023-02-23T21:15:46.330Z,34.70
2023-02-23T21:18:13.831Z,34.63
2023-02-23T21:20:41.288Z,34.13
2023-02-23T21:23:08.699Z,36.33
2023-02-23T21:25:35.961Z,35.30
2023-02-23T21:28:03.035Z,35.27
2023-02-23T21:30:30.519Z,35.30
2023-02-23T21:32:59.522Z,37.10
2023-02-23T21:35:26.813Z,36.67
2023-02-23T21:37:53.904Z,36.40
2023-02-23T21:40:22.219Z,37.20
2023-02-23T21:42:50.806Z,36.93
2023-02-23T21:45:19.570Z,39.03
2023-02-23T21:47:48.425Z,39.30
2023-02-23T21:50:18.505Z,41.80
2023-02-23T21:52:48.617Z,55.80
2023-02-23T21:55:24.440Z,58.63
2023-02-23T21:57:52.342Z,59.97
2023-02-23T22:00:21.678Z,58.57
2023-02-23T22:02:49.897Z,61.77
2023-02-23T22:05:19.660Z,64.37
2023-02-23T22:07:53.323Z,67.03
2023-02-23T22:10:22.915Z,63.93
2023-02-23T22:12:56.024Z,70.80
2023-02-23T22:15:27.761Z,74.33
2023-02-23T22:17:56.178Z,71.60
2023-02-23T22:20:23.605Z,71.37
2023-02-23T22:22:50.697Z,69.97
2023-02-23T22:25:19.966Z,75.57
2023-02-23T22:27:47.435Z,76.77
2023-02-23T22:30:15.494Z,74.60
2023-02-23T22:32:43.583Z,75.77
2023-02-23T22:35:11.149Z,75.13
2023-02-23T22:37:39.094Z,73.50
2023-02-23T22:40:12.335Z,68.27
2023-02-23T22:42:39.478Z,70.10
2023-02-23T22:45:07.313Z,65.23
2023-02-23T22:47:35.376Z,66.80
2023-02-23T22:50:02.655Z,63.17
2023-02-23T22:52:30.012Z,59.10
2023-02-23T22:54:57.164Z,52.77
2023-02-23T22:57:24.457Z,52.77
2023-02-23T23:00:00.681Z,52.90
2023-02-23T23:02:32.429Z,51.40
2023-02-23T23:05:01.860Z,49.47
2023-02-23T23:07:31.122Z,47.17
2023-02-23T23:10:02.534Z,49.67
2023-02-23T23:12:29.877Z,52.60
2023-02-23T23:15:01.255Z,49.37
2023-02-23T23:17:32.031Z,50.20
2023-02-23T23:20:10.671Z,49.30
2023-02-23T23:22:38.553Z,52.43
2023-02-23T23:25:14.583Z,51.17
2023-02-23T23:27:44.862Z,53.20
2023-02-23T23:30:13.419Z,52.27
2023-02-23T23:32:41.032Z,56.50
2023-02-23T23:35:11.116Z,57.40
2023-02-23T23:37:41.453Z,58.67
2023-02-23T23:40:17.087Z,58.63
2023-02-23T23:42:46.773Z,58.43
2023-02-23T23:45:18.872Z,59.27
2023-02-23T23:47:47.148Z,60.63
2023-02-23T23:50:16.582Z,55.90
2023-02-23T23:52:45.291Z,57.33
2023-02-23T23:55:15.238Z,51.50
2023-02-23T23:57:43.007Z,51.17
